Taurus — WDB5562 — position and weather

sailwx.info

Track history (hours):
 
Tides and Currents Weather Stations Pressure Air Temp Water Temp Dewpoint Dewpoint Depression Visibility Wind Speed Wind Dir Waves Ship Positions

Taurus

Owner: Kirby Offshore Marine, LLC, Staten Island, NY. More information available from US FCC via Universal Licensing System and Coast Guard Vessel Documentation Center.

Last reported at 2015-Aug-29 00:33 UTC. Time now 2015-Aug-29 03:12 UTC.
Position N 40°37' W 074°12'.

Length 24 m.

Type: Ship (hazmat cat B). MMSI: 366910990.

Date/timePositionNaut miles runAvg speedWind from/ knotsBaromVisibWave heightAir tempDewpointWater temp
2015-Aug-29 00:33N 40°37' W 074°12'3 2.6
2015-Aug-28 23:33N 40°39' W 074°10'1 1.4
2015-Aug-28 22:33N 40°39' W 074°08'3 3.0
2015-Aug-28 21:33N 40°39' W 074°04'4 4.4
2015-Aug-28 20:33N 40°39' W 074°10'4 4.5
2015-Aug-28 19:33N 40°38' W 074°04'1 0.8
2015-Aug-28 18:33N 40°38' W 074°04'2 1.5
2015-Aug-28 17:33N 40°39' W 074°04'2 2.1
2015-Aug-28 16:33N 40°39' W 074°07'2 2.4
2015-Aug-28 15:33N 40°38' W 074°10'0 0.0
2015-Aug-28 14:33N 40°38' W 074°10'0 0.0
2015-Aug-28 13:33N 40°38' W 074°10'0 0.1
2015-Aug-28 12:33N 40°39' W 074°10'0 0.0
2015-Aug-28 11:33N 40°39' W 074°10'0 0.0
2015-Aug-28 10:33N 40°39' W 074°10'0 0.0
2015-Aug-28 09:33N 40°39' W 074°10'0 0.0
2015-Aug-28 08:33N 40°39' W 074°10'3 3.2
2015-Aug-28 07:33N 40°36' W 074°12'4 2.0
2015-Aug-28 05:30N 40°32' W 074°15'0 0.0
2015-Aug-28 04:28N 40°32' W 074°15'0 0.0
2015-Aug-28 03:30N 40°32' W 074°15'6 3.0
2015-Aug-28 01:33N 40°38' W 074°12'4 4.0
2015-Aug-28 00:33N 40°39' W 074°07'2 2.2
2015-Aug-27 23:33N 40°39' W 074°10'0 0.0
2015-Aug-27 22:33N 40°39' W 074°10'2 2.3
2015-Aug-27 21:33N 40°37' W 074°12'2 1.6
2015-Aug-27 20:33N 40°38' W 074°11'6 5.6
2015-Aug-27 19:33N 40°39' W 074°04'3 2.9
2015-Aug-27 18:33N 40°39' W 074°08'4 3.5
2015-Aug-27 17:33N 40°38' W 074°12'4 1.6
2015-Aug-27 15:17N 40°34' W 074°13'5 7.1
2015-Aug-27 14:33N 40°39' W 074°11'6 5.8
2015-Aug-27 13:33N 40°40' W 074°03'7 7.3
2015-Aug-27 12:33N 40°46' W 073°57'6 6.1
2015-Aug-27 11:32N 40°48' W 073°50'6 6.2
2015-Aug-27 10:33N 40°52' W 073°44'10 0.6
2015-Aug-26 17:33N 40°47' W 073°55'5 5.3
2015-Aug-26 16:33N 40°43' W 073°59'5 5.2
2015-Aug-26 15:33N 40°39' W 074°04'0 0.3
2015-Aug-26 14:33N 40°39' W 074°04'0 0.0
2015-Aug-26 13:33N 40°39' W 074°04'6 5.7
2015-Aug-26 12:33N 40°38' W 074°12'2 2.2
2015-Aug-26 11:34N 40°39' W 074°09'4 3.5
2015-Aug-26 10:33N 40°38' W 074°04'4 4.0
2015-Aug-26 09:33N 40°38' W 074°09'2 1.7
2015-Aug-26 08:29N 40°39' W 074°07'0 0.0
2015-Aug-26 07:33N 40°39' W 074°07'0 0.0
2015-Aug-26 06:17N 40°39' W 074°07'0 0.0
2015-Aug-26 05:33N 40°39' W 074°07'0 0.0
2015-Aug-26 02:24N 40°39' W 074°07'0 0.0
2015-Aug-26 00:33N 40°39' W 074°07'0 0.0
2015-Aug-25 23:19N 40°39' W 074°07'2 2.2
2015-Aug-25 22:21N 40°39' W 074°10'5 6.6
2015-Aug-25 21:32N 40°34' W 074°13'5 2.4
2015-Aug-25 19:33N 40°38' W 074°12'6 5.9
2015-Aug-25 18:33N 40°39' W 074°04'2 2.3
2015-Aug-25 17:33N 40°39' W 074°07'0 0.0
2015-Aug-25 16:33N 40°39' W 074°07'5 4.6
2015-Aug-25 15:33N 40°36' W 074°12'0 0.5
2015-Aug-25 14:33N 40°36' W 074°12'5 5.0
2015-Aug-25 13:34N 40°39' W 074°07'0 0.0
2015-Aug-25 12:33N 40°39' W 074°07'0 0.0
2015-Aug-25 11:33N 40°39' W 074°07'0 0.0
2015-Aug-25 10:34N 40°39' W 074°07'0 0.0
2015-Aug-25 09:34N 40°39' W 074°07'0 0.0
2015-Aug-25 08:34N 40°39' W 074°07'0 0.0
2015-Aug-25 07:34N 40°39' W 074°07'0 0.0
2015-Aug-25 06:34N 40°39' W 074°07'0 0.0
2015-Aug-25 05:33N 40°39' W 074°07'0 0.0
2015-Aug-25 04:33N 40°39' W 074°07'0 0.0
2015-Aug-25 03:34N 40°39' W 074°07'0 0.0
2015-Aug-25 02:33N 40°39' W 074°07'0 0.0
2015-Aug-25 01:33N 40°39' W 074°07'3 2.8
2015-Aug-25 00:33N 40°39' W 074°04'9 8.9
2015-Aug-24 23:32N 40°47' W 073°56'7 7.6
2015-Aug-24 22:33N 40°49' W 073°47'8 8.0
2015-Aug-24 21:33N 40°55' W 073°39'8 8.6
2015-Aug-24 20:33N 40°59' W 073°29'9 8.9
2015-Aug-24 19:33N 41°02' W 073°19'9 8.6
2015-Aug-24 18:33N 41°06' W 073°08'8 8.4
2015-Aug-24 17:33N 41°11' W 072°59'8 7.5
2015-Aug-24 16:33N 41°18' W 072°54'0 0.0
2015-Aug-24 12:33N 41°18' W 072°54'0 0.0
2015-Aug-24 11:28N 41°18' W 072°54'0 0.0
2015-Aug-24 10:33N 41°18' W 072°54'0 0.0
2015-Aug-24 09:32N 41°18' W 072°54'0 0.0
2015-Aug-24 08:32N 41°18' W 072°54'3 2.6
2015-Aug-24 07:33N 41°15' W 072°55'3 3.1
2015-Aug-24 06:33N 41°13' W 072°58'0 0.0
2015-Aug-24 05:23N 41°13' W 072°58'0 0.0
2015-Aug-24 04:22N 41°13' W 072°58'0 0.0
2015-Aug-24 03:32N 41°13' W 072°58'0 0.0
2015-Aug-24 02:33N 41°13' W 072°58'0 0.0
2015-Aug-24 01:34N 41°13' W 072°58'0 0.0
2015-Aug-24 00:33N 41°13' W 072°58'0 0.1
2015-Aug-23 23:34N 41°13' W 072°58'5 5.4
2015-Aug-23 22:33N 41°09' W 073°03'6 6.4
2015-Aug-23 21:33N 41°06' W 073°10'6 6.4
2015-Aug-23 20:33N 41°03' W 073°18'6 6.0
2015-Aug-23 19:33N 41°02' W 073°26'6 6.2
2015-Aug-23 18:33N 40°59' W 073°33'6 6.5
2015-Aug-23 17:33N 40°55' W 073°40'7 7.0
2015-Aug-23 16:33N 40°50' W 073°46'6 6.4
2015-Aug-23 15:34N 40°48' W 073°54'7 6.8
2015-Aug-23 14:34N 40°42' W 073°60'6 6.2
2015-Aug-23 13:34N 40°39' W 074°06'5 5.1
2015-Aug-23 12:34N 40°36' W 074°12'0 0.3
2015-Aug-23 11:33N 40°36' W 074°12'0 0.0
2015-Aug-23 10:33N 40°36' W 074°12'0 0.0
2015-Aug-23 09:33N 40°36' W 074°12'0 0.0
2015-Aug-23 08:34N 40°36' W 074°12'0 0.0
2015-Aug-23 07:34N 40°36' W 074°12'0 0.0
2015-Aug-23 06:33N 40°36' W 074°12'0 0.0
2015-Aug-23 05:33N 40°36' W 074°12'0 0.4
2015-Aug-23 04:33N 40°36' W 074°12'3 3.0
2015-Aug-23 03:33N 40°39' W 074°10'0 0.0
2015-Aug-23 02:34N 40°39' W 074°10'0 0.0
2015-Aug-23 01:34N 40°39' W 074°10'0 0.1
2015-Aug-23 00:33N 40°39' W 074°10'0 0.0
2015-Aug-22 23:33N 40°39' W 074°10'1 1.0
2015-Aug-22 22:34N 40°38' W 074°09'6 6.3
2015-Aug-22 21:34N 40°41' W 074°01'8 7.8
2015-Aug-22 20:33N 40°47' W 073°55'6 6.1
2015-Aug-22 19:34N 40°48' W 073°47'6 5.6
2015-Aug-22 18:25N 40°52' W 073°40'2 0.8
2015-Aug-22 15:32N 40°50' W 073°39'0 0.0
2015-Aug-22 14:09N 40°50' W 073°39'0 0.0
2015-Aug-22 13:21N 40°50' W 073°39'0 0.0
2015-Aug-22 12:28N 40°50' W 073°39'0 0.0
2015-Aug-22 10:27N 40°50' W 073°39'0 0.2
2015-Aug-22 09:29N 40°50' W 073°39'4 4.7
2015-Aug-22 08:33N 40°53' W 073°43'6 6.0
2015-Aug-22 07:33N 40°48' W 073°48'7 6.9
2015-Aug-22 06:33N 40°46' W 073°57'6 5.8
2015-Aug-22 05:33N 40°41' W 074°01'4 4.2
2015-Aug-22 04:33N 40°39' W 074°05'4 3.6
2015-Aug-22 03:33N 40°39' W 074°10'2 1.9
2015-Aug-22 02:33N 40°38' W 074°12'0 0.5
2015-Aug-22 01:33N 40°38' W 074°12'0 0.0
2015-Aug-22 00:33N 40°38' W 074°12'2 1.7
2015-Aug-21 23:33N 40°38' W 074°10'0 0.0
2015-Aug-21 22:34N 40°38' W 074°10'0 0.0
2015-Aug-21 21:33N 40°39' W 074°10'0 0.0
2015-Aug-21 20:34N 40°39' W 074°10'0 0.0
2015-Aug-21 19:34N 40°39' W 074°10'0 0.0
2015-Aug-21 18:33N 40°39' W 074°10'0 0.0
2015-Aug-21 17:33N 40°39' W 074°10'0 0.0
2015-Aug-21 16:33N 40°39' W 074°10'0 0.0
2015-Aug-21 15:33N 40°39' W 074°10'4 4.4
2015-Aug-21 14:34N 40°39' W 074°04'1 0.9
2015-Aug-21 13:33N 40°38' W 074°04'3 2.7
2015-Aug-21 12:33N 40°39' W 074°07'2 1.9
2015-Aug-21 11:34N 40°39' W 074°10'0 0.0
2015-Aug-21 10:33N 40°39' W 074°10'2 1.9
2015-Aug-21 09:33N 40°38' W 074°12'2 1.5
2015-Aug-21 08:32N 40°39' W 074°11'6 5.7
2015-Aug-21 07:33N 40°40' W 074°03'7 7.2
2015-Aug-21 06:33N 40°45' W 073°58'6 5.6
2015-Aug-21 05:33N 40°48' W 073°51'6 5.8
2015-Aug-21 04:34N 40°52' W 073°45'4 3.8
2015-Aug-21 03:33N 40°52' W 073°40'2 1.9
2015-Aug-21 02:30N 40°50' W 073°39'0 0.0
2015-Aug-21 01:28N 40°50' W 073°39'0 0.0
2015-Aug-21 00:32N 40°50' W 073°39'0 0.0
2015-Aug-20 23:33N 40°50' W 073°39'0 0.0
2015-Aug-20 21:20N 40°50' W 073°39'0 0.3
2015-Aug-20 20:16N 40°50' W 073°39'4 5.2
2015-Aug-20 19:25N 40°52' W 073°44'6 6.4
2015-Aug-20 18:33N 40°48' W 073°49'7 6.8
2015-Aug-20 17:34N 40°46' W 073°57'5 5.2
2015-Aug-20 16:33N 40°41' W 074°01'5 4.8
2015-Aug-20 15:34N 40°37' W 074°03'6 5.8
2015-Aug-20 14:33N 40°34' W 073°56'6 6.3
2015-Aug-20 13:34N 40°36' W 073°48'2 0.2
2015-Aug-20 02:33N 40°37' W 073°46'7 7.0
2015-Aug-20 01:34N 40°34' W 073°54'6 6.2
2015-Aug-20 00:33N 40°36' W 074°02'4 3.7
2015-Aug-19 23:34N 40°39' W 074°04'4 4.4
2015-Aug-19 22:34N 40°39' W 074°10'0 0.0
2015-Aug-19 21:34N 40°39' W 074°10'0 0.0
2015-Aug-19 20:33N 40°39' W 074°10'0 0.0
2015-Aug-19 19:33N 40°39' W 074°10'0 0.0
2015-Aug-19 18:33N 40°39' W 074°10'4 4.4
2015-Aug-19 17:34N 40°39' W 074°04'6 5.8
2015-Aug-19 16:33N 40°38' W 074°12'1 1.5
2015-Aug-19 15:34N 40°39' W 074°10'0 0.0
2015-Aug-19 14:31N 40°39' W 074°10'0 0.0
2015-Aug-19 13:29N 40°39' W 074°10'0 0.1
2015-Aug-19 12:34N 40°38' W 074°10'0 0.0
2015-Aug-19 11:34N 40°38' W 074°10'0 0.0
2015-Aug-19 10:33N 40°38' W 074°10'0 0.0
2015-Aug-19 09:33N 40°38' W 074°10'0 0.0
2015-Aug-19 08:34N 40°38' W 074°10'0 0.0
2015-Aug-19 07:33N 40°38' W 074°10'3 2.9
2015-Aug-19 06:33N 40°36' W 074°12'4 3.4
2015-Aug-19 05:32N 40°39' W 074°09'5 5.2
2015-Aug-19 04:34N 40°40' W 074°02'4 3.8
2015-Aug-19 03:33N 40°43' W 073°59'2 2.2
2015-Aug-19 02:34N 40°44' W 073°57'0 0.0
2015-Aug-19 01:33N 40°44' W 073°57'0 0.0
2015-Aug-19 00:34N 40°44' W 073°57'  
Track history (hours):
 
Tides and Currents Weather Stations Pressure Air Temp Water Temp Dewpoint Dewpoint Depression Visibility Wind Speed Wind Dir Waves Ship Positions

Taurus

Owner: Kirby Offshore Marine, LLC, Staten Island, NY. More information available from US FCC via Universal Licensing System and Coast Guard Vessel Documentation Center.

Last reported at 2015-Aug-29 00:33 UTC. Time now 2015-Aug-29 03:12 UTC.
Position N 40°37' W 074°12'.

Length 24 m.

Type: Ship (hazmat cat B). MMSI: 366910990.

Date/timePositionNaut miles runAvg speedWind from/ knotsBaromVisibWave heightAir tempDewpointWater temp
2015-Aug-29 00:33N 40°37' W 074°12'3 2.6
2015-Aug-28 23:33N 40°39' W 074°10'1 1.4
2015-Aug-28 22:33N 40°39' W 074°08'3 3.0
2015-Aug-28 21:33N 40°39' W 074°04'4 4.4
2015-Aug-28 20:33N 40°39' W 074°10'4 4.5
2015-Aug-28 19:33N 40°38' W 074°04'1 0.8
2015-Aug-28 18:33N 40°38' W 074°04'2 1.5
2015-Aug-28 17:33N 40°39' W 074°04'2 2.1
2015-Aug-28 16:33N 40°39' W 074°07'2 2.4
2015-Aug-28 15:33N 40°38' W 074°10'0 0.0
2015-Aug-28 14:33N 40°38' W 074°10'0 0.0
2015-Aug-28 13:33N 40°38' W 074°10'0 0.1
2015-Aug-28 12:33N 40°39' W 074°10'0 0.0
2015-Aug-28 11:33N 40°39' W 074°10'0 0.0
2015-Aug-28 10:33N 40°39' W 074°10'0 0.0
2015-Aug-28 09:33N 40°39' W 074°10'0 0.0
2015-Aug-28 08:33N 40°39' W 074°10'3 3.2
2015-Aug-28 07:33N 40°36' W 074°12'4 2.0
2015-Aug-28 05:30N 40°32' W 074°15'0 0.0
2015-Aug-28 04:28N 40°32' W 074°15'0 0.0
2015-Aug-28 03:30N 40°32' W 074°15'6 3.0
2015-Aug-28 01:33N 40°38' W 074°12'4 4.0
2015-Aug-28 00:33N 40°39' W 074°07'2 2.2
2015-Aug-27 23:33N 40°39' W 074°10'0 0.0
2015-Aug-27 22:33N 40°39' W 074°10'2 2.3
2015-Aug-27 21:33N 40°37' W 074°12'2 1.6
2015-Aug-27 20:33N 40°38' W 074°11'6 5.6
2015-Aug-27 19:33N 40°39' W 074°04'3 2.9
2015-Aug-27 18:33N 40°39' W 074°08'4 3.5
2015-Aug-27 17:33N 40°38' W 074°12'4 1.6
2015-Aug-27 15:17N 40°34' W 074°13'5 7.1
2015-Aug-27 14:33N 40°39' W 074°11'6 5.8
2015-Aug-27 13:33N 40°40' W 074°03'7 7.3
2015-Aug-27 12:33N 40°46' W 073°57'6 6.1
2015-Aug-27 11:32N 40°48' W 073°50'6 6.2
2015-Aug-27 10:33N 40°52' W 073°44'10 0.6
2015-Aug-26 17:33N 40°47' W 073°55'5 5.3
2015-Aug-26 16:33N 40°43' W 073°59'5 5.2
2015-Aug-26 15:33N 40°39' W 074°04'0 0.3
2015-Aug-26 14:33N 40°39' W 074°04'0 0.0
2015-Aug-26 13:33N 40°39' W 074°04'6 5.7
2015-Aug-26 12:33N 40°38' W 074°12'2 2.2
2015-Aug-26 11:34N 40°39' W 074°09'4 3.5
2015-Aug-26 10:33N 40°38' W 074°04'4 4.0
2015-Aug-26 09:33N 40°38' W 074°09'2 1.7
2015-Aug-26 08:29N 40°39' W 074°07'0 0.0
2015-Aug-26 07:33N 40°39' W 074°07'0 0.0
2015-Aug-26 06:17N 40°39' W 074°07'0 0.0
2015-Aug-26 05:33N 40°39' W 074°07'0 0.0
2015-Aug-26 02:24N 40°39' W 074°07'0 0.0
2015-Aug-26 00:33N 40°39' W 074°07'0 0.0
2015-Aug-25 23:19N 40°39' W 074°07'2 2.2
2015-Aug-25 22:21N 40°39' W 074°10'5 6.6
2015-Aug-25 21:32N 40°34' W 074°13'5 2.4
2015-Aug-25 19:33N 40°38' W 074°12'6 5.9
2015-Aug-25 18:33N 40°39' W 074°04'2 2.3
2015-Aug-25 17:33N 40°39' W 074°07'0 0.0
2015-Aug-25 16:33N 40°39' W 074°07'5 4.6
2015-Aug-25 15:33N 40°36' W 074°12'0 0.5
2015-Aug-25 14:33N 40°36' W 074°12'5 5.0
2015-Aug-25 13:34N 40°39' W 074°07'0 0.0
2015-Aug-25 12:33N 40°39' W 074°07'0 0.0
2015-Aug-25 11:33N 40°39' W 074°07'0 0.0
2015-Aug-25 10:34N 40°39' W 074°07'0 0.0
2015-Aug-25 09:34N 40°39' W 074°07'0 0.0
2015-Aug-25 08:34N 40°39' W 074°07'0 0.0
2015-Aug-25 07:34N 40°39' W 074°07'0 0.0
2015-Aug-25 06:34N 40°39' W 074°07'0 0.0
2015-Aug-25 05:33N 40°39' W 074°07'0 0.0
2015-Aug-25 04:33N 40°39' W 074°07'0 0.0
2015-Aug-25 03:34N 40°39' W 074°07'0 0.0
2015-Aug-25 02:33N 40°39' W 074°07'0 0.0
2015-Aug-25 01:33N 40°39' W 074°07'3 2.8
2015-Aug-25 00:33N 40°39' W 074°04'9 8.9
2015-Aug-24 23:32N 40°47' W 073°56'7 7.6
2015-Aug-24 22:33N 40°49' W 073°47'8 8.0
2015-Aug-24 21:33N 40°55' W 073°39'8 8.6
2015-Aug-24 20:33N 40°59' W 073°29'9 8.9
2015-Aug-24 19:33N 41°02' W 073°19'9 8.6
2015-Aug-24 18:33N 41°06' W 073°08'8 8.4
2015-Aug-24 17:33N 41°11' W 072°59'8 7.5
2015-Aug-24 16:33N 41°18' W 072°54'0 0.0
2015-Aug-24 12:33N 41°18' W 072°54'0 0.0
2015-Aug-24 11:28N 41°18' W 072°54'0 0.0
2015-Aug-24 10:33N 41°18' W 072°54'0 0.0
2015-Aug-24 09:32N 41°18' W 072°54'0 0.0
2015-Aug-24 08:32N 41°18' W 072°54'3 2.6
2015-Aug-24 07:33N 41°15' W 072°55'3 3.1
2015-Aug-24 06:33N 41°13' W 072°58'0 0.0
2015-Aug-24 05:23N 41°13' W 072°58'0 0.0
2015-Aug-24 04:22N 41°13' W 072°58'0 0.0
2015-Aug-24 03:32N 41°13' W 072°58'0 0.0
2015-Aug-24 02:33N 41°13' W 072°58'0 0.0
2015-Aug-24 01:34N 41°13' W 072°58'0 0.0
2015-Aug-24 00:33N 41°13' W 072°58'0 0.1
2015-Aug-23 23:34N 41°13' W 072°58'5 5.4
2015-Aug-23 22:33N 41°09' W 073°03'6 6.4
2015-Aug-23 21:33N 41°06' W 073°10'6 6.4
2015-Aug-23 20:33N 41°03' W 073°18'6 6.0
2015-Aug-23 19:33N 41°02' W 073°26'6 6.2
2015-Aug-23 18:33N 40°59' W 073°33'6 6.5
2015-Aug-23 17:33N 40°55' W 073°40'7 7.0
2015-Aug-23 16:33N 40°50' W 073°46'6 6.4
2015-Aug-23 15:34N 40°48' W 073°54'7 6.8
2015-Aug-23 14:34N 40°42' W 073°60'6 6.2
2015-Aug-23 13:34N 40°39' W 074°06'5 5.1
2015-Aug-23 12:34N 40°36' W 074°12'0 0.3
2015-Aug-23 11:33N 40°36' W 074°12'0 0.0
2015-Aug-23 10:33N 40°36' W 074°12'0 0.0
2015-Aug-23 09:33N 40°36' W 074°12'0 0.0
2015-Aug-23 08:34N 40°36' W 074°12'0 0.0
2015-Aug-23 07:34N 40°36' W 074°12'0 0.0
2015-Aug-23 06:33N 40°36' W 074°12'0 0.0
2015-Aug-23 05:33N 40°36' W 074°12'0 0.4
2015-Aug-23 04:33N 40°36' W 074°12'3 3.0
2015-Aug-23 03:33N 40°39' W 074°10'0 0.0
2015-Aug-23 02:34N 40°39' W 074°10'0 0.0
2015-Aug-23 01:34N 40°39' W 074°10'0 0.1
2015-Aug-23 00:33N 40°39' W 074°10'0 0.0
2015-Aug-22 23:33N 40°39' W 074°10'1 1.0
2015-Aug-22 22:34N 40°38' W 074°09'6 6.3
2015-Aug-22 21:34N 40°41' W 074°01'8 7.8
2015-Aug-22 20:33N 40°47' W 073°55'6 6.1
2015-Aug-22 19:34N 40°48' W 073°47'6 5.6
2015-Aug-22 18:25N 40°52' W 073°40'2 0.8
2015-Aug-22 15:32N 40°50' W 073°39'0 0.0
2015-Aug-22 14:09N 40°50' W 073°39'0 0.0
2015-Aug-22 13:21N 40°50' W 073°39'0 0.0
2015-Aug-22 12:28N 40°50' W 073°39'0 0.0
2015-Aug-22 10:27N 40°50' W 073°39'0 0.2
2015-Aug-22 09:29N 40°50' W 073°39'4 4.7
2015-Aug-22 08:33N 40°53' W 073°43'6 6.0
2015-Aug-22 07:33N 40°48' W 073°48'7 6.9
2015-Aug-22 06:33N 40°46' W 073°57'6 5.8
2015-Aug-22 05:33N 40°41' W 074°01'4 4.2
2015-Aug-22 04:33N 40°39' W 074°05'4 3.6
2015-Aug-22 03:33N 40°39' W 074°10'2 1.9
2015-Aug-22 02:33N 40°38' W 074°12'0 0.5
2015-Aug-22 01:33N 40°38' W 074°12'0 0.0
2015-Aug-22 00:33N 40°38' W 074°12'2 1.7
2015-Aug-21 23:33N 40°38' W 074°10'0 0.0
2015-Aug-21 22:34N 40°38' W 074°10'0 0.0
2015-Aug-21 21:33N 40°39' W 074°10'0 0.0
2015-Aug-21 20:34N 40°39' W 074°10'0 0.0
2015-Aug-21 19:34N 40°39' W 074°10'0 0.0
2015-Aug-21 18:33N 40°39' W 074°10'0 0.0
2015-Aug-21 17:33N 40°39' W 074°10'0 0.0
2015-Aug-21 16:33N 40°39' W 074°10'0 0.0
2015-Aug-21 15:33N 40°39' W 074°10'4 4.4
2015-Aug-21 14:34N 40°39' W 074°04'1 0.9
2015-Aug-21 13:33N 40°38' W 074°04'3 2.7
2015-Aug-21 12:33N 40°39' W 074°07'2 1.9
2015-Aug-21 11:34N 40°39' W 074°10'0 0.0
2015-Aug-21 10:33N 40°39' W 074°10'2 1.9
2015-Aug-21 09:33N 40°38' W 074°12'2 1.5
2015-Aug-21 08:32N 40°39' W 074°11'6 5.7
2015-Aug-21 07:33N 40°40' W 074°03'7 7.2
2015-Aug-21 06:33N 40°45' W 073°58'6 5.6
2015-Aug-21 05:33N 40°48' W 073°51'6 5.8
2015-Aug-21 04:34N 40°52' W 073°45'4 3.8
2015-Aug-21 03:33N 40°52' W 073°40'2 1.9
2015-Aug-21 02:30N 40°50' W 073°39'0 0.0
2015-Aug-21 01:28N 40°50' W 073°39'0 0.0
2015-Aug-21 00:32N 40°50' W 073°39'0 0.0
2015-Aug-20 23:33N 40°50' W 073°39'0 0.0
2015-Aug-20 21:20N 40°50' W 073°39'0 0.3
2015-Aug-20 20:16N 40°50' W 073°39'4 5.2
2015-Aug-20 19:25N 40°52' W 073°44'6 6.4
2015-Aug-20 18:33N 40°48' W 073°49'7 6.8
2015-Aug-20 17:34N 40°46' W 073°57'5 5.2
2015-Aug-20 16:33N 40°41' W 074°01'5 4.8
2015-Aug-20 15:34N 40°37' W 074°03'6 5.8
2015-Aug-20 14:33N 40°34' W 073°56'6 6.3
2015-Aug-20 13:34N 40°36' W 073°48'2 0.2
2015-Aug-20 02:33N 40°37' W 073°46'7 7.0
2015-Aug-20 01:34N 40°34' W 073°54'6 6.2
2015-Aug-20 00:33N 40°36' W 074°02'4 3.7
2015-Aug-19 23:34N 40°39' W 074°04'4 4.4
2015-Aug-19 22:34N 40°39' W 074°10'0 0.0
2015-Aug-19 21:34N 40°39' W 074°10'0 0.0
2015-Aug-19 20:33N 40°39' W 074°10'0 0.0
2015-Aug-19 19:33N 40°39' W 074°10'0 0.0
2015-Aug-19 18:33N 40°39' W 074°10'4 4.4
2015-Aug-19 17:34N 40°39' W 074°04'6 5.8
2015-Aug-19 16:33N 40°38' W 074°12'1 1.5
2015-Aug-19 15:34N 40°39' W 074°10'0 0.0
2015-Aug-19 14:31N 40°39' W 074°10'0 0.0
2015-Aug-19 13:29N 40°39' W 074°10'0 0.1
2015-Aug-19 12:34N 40°38' W 074°10'0 0.0
2015-Aug-19 11:34N 40°38' W 074°10'0 0.0
2015-Aug-19 10:33N 40°38' W 074°10'0 0.0
2015-Aug-19 09:33N 40°38' W 074°10'0 0.0
2015-Aug-19 08:34N 40°38' W 074°10'0 0.0
2015-Aug-19 07:33N 40°38' W 074°10'3 2.9
2015-Aug-19 06:33N 40°36' W 074°12'4 3.4
2015-Aug-19 05:32N 40°39' W 074°09'5 5.2
2015-Aug-19 04:34N 40°40' W 074°02'4 3.8
2015-Aug-19 03:33N 40°43' W 073°59'2 2.2
2015-Aug-19 02:34N 40°44' W 073°57'0 0.0
2015-Aug-19 01:33N 40°44' W 073°57'0 0.0
2015-Aug-19 00:34N 40°44' W 073°57'  

Dump ship's entire track history